EDT,Max TemperatureF,Mean TemperatureF,Min TemperatureF,Max Dew PointF,MeanDew PointF,Min DewpointF,Max Humidity, Mean Humidity, Min Humidity, Max Sea Level PressureIn, Mean Sea Level PressureIn, Min Sea Level PressureIn, Max VisibilityMiles, Mean VisibilityMiles, Min VisibilityMiles, Max Wind SpeedMPH, Mean Wind SpeedMPH, Max Gust SpeedMPH,PrecipitationIn, CloudCover, Events, WindDirDegrees
2013-4-1,80,70,59,64,60,57,100,81,54,30.02,29.97,29.90,10,10,10,17,7,18,0.00,2,,226
2013-4-2,77,62,48,59,50,45,100,80,32,30.13,30.06,30.00,10,7,0,14,1,,0.00,0,Fog,72
2013-4-3,77,60,44,64,55,45,100,92,50,30.12,30.08,30.04,10,7,2,15,2,17,0.03,3,Fog-Rain,80
2013-4-4,77,70,62,68,64,63,100,94,69,30.07,29.96,29.87,10,8,3,23,5,28,0.00,6,Rain,127
2013-4-5,64,57,48,64,58,48,100,97,88,30.05,29.92,29.82,10,9,2,14,2,,0.00,7,Rain-Thunderstorm,345
2013-4-6,68,55,42,55,50,43,100,88,49,30.20,30.12,30.04,10,10,6,22,2,22,0.00,1,,47
2013-4-7,77,64,50,61,54,50,100,86,50,30.21,30.15,30.12,10,7,2,15,2,,0.00,1,,113
2013-4-8,80,64,48,63,55,48,100,85,42,30.18,30.14,30.09,10,8,2,15,1,,0.00,0,,113
2013-4-9,82,68,53,66,58,54,100,84,45,30.21,30.15,30.11,10,8,0,16,2,,0.00,1,Fog,120
2013-4-10,82,66,50,66,59,50,100,88,51,30.17,30.09,30.02,10,9,0,16,2,,0.00,1,Fog,122
2013-4-11,86,75,64,73,69,64,100,94,51,30.01,29.93,29.82,10,7,3,12,2,,0.00,4,Rain,146
2013-4-12,86,78,71,72,71,66,100,92,51,29.90,29.83,29.77,10,8,5,23,5,38,0.01,5,Rain,188
2013-4-13,82,68,55,55,52,46,94,63,28,30.03,29.98,29.92,10,10,10,9,5,,0.00,0,,359
2013-4-14,71,62,53,66,59,54,100,97,64,30.04,29.98,29.91,10,8,1,17,2,,0.24,4,Rain,57
2013-4-15,84,70,57,66,62,57,100,89,51,30.14,29.99,29.84,10,8,0,10,2,,0.00,2,Fog-Rain,19
2013-4-16,80,70,59,68,64,59,100,93,61,30.21,30.16,30.11,10,8,3,15,1,,0.00,4,,70
2013-4-17,77,67,57,68,62,57,100,93,65,30.20,30.16,30.12,10,6,1,12,1,,0.00,2,,50
2013-4-18,84,72,59,70,63,59,100,85,48,30.12,30.05,29.98,10,6,0,15,2,,0.00,2,Fog,128
2013-4-19,86,77,62,72,70,63,100,87,55,30.02,29.97,29.88,10,9,3,21,5,26,0.09,4,Rain,182
2013-4-20,62,55,48,59,52,48,100,94,77,30.22,30.11,30.02,10,7,2,14,8,18,0.48,5,Rain,340
2013-4-21,68,57,46,63,56,46,100,92,73,30.22,30.18,30.14,10,7,3,15,5,25,0.00,6,Rain,29
2013-4-22,62,58,53,63,58,52,100,96,77,30.17,30.12,30.08,10,5,1,16,10,28,0.00,6,Rain,19
2013-4-23,71,60,50,57,52,50,100,90,57,30.18,30.14,30.09,10,8,3,12,2,,0.00,0,,64
2013-4-24,84,65,46,63,53,46,100,85,39,30.17,30.14,30.10,10,9,2,10,1,,0.00,1,,132
2013-4-25,84,68,53,66,60,54,100,86,48,30.22,30.17,30.12,10,8,3,8,1,,0.00,1,,294
2013-4-26,78,68,57,66,60,50,100,81,61,30.31,30.25,30.19,10,9,5,16,3,,0.00,1,,33
2013-4-27,80,66,53,63,57,54,100,84,45,30.28,30.22,30.17,10,8,4,14,2,,0.00,1,,69
2013-4-28,80,68,57,66,61,57,100,86,57,30.19,30.10,30.01,10,7,2,15,2,22,0.00,2,,121
2013-4-29,82,72,60,81,64,61,100,93,54,30.05,30.01,29.93,10,9,1,14,1,,0.00,4,Rain-Thunderstorm,246
2013-4-30,82,70,59,68,63,59,100,90,51,30.06,30.00,29.96,10,6,0,16,1,22,0.00,4,Fog,80